Portada
METAR-TAF:

METAR-TAF

Aeropuertos :

Aeropuerto de Badajoz

Badajoz, España

latitud: 38-53N, longitud: 006-49W, altitud: 185 m

Observación

El informe se hizo hace 5 horas y 18 minutos, a las 19:00 UTC
Viento 9 kt del oeste-noroeste
Temperatura 29°C
Humedad 37%
Presión 1010 hPa
Visibilidad 10 km o más
sin nubes por debajo de 1500 m y sin presencia de cumulonimbus.

METAR: LEBZ 111900Z 29009KT CAVOK 29/13 Q1010

Hora: 02:18 (00:18 UTC)

Pronóstico

El informe se hizo hace 1 hora y 18 minutos, a las 23:00 UTC
Pronóstico válido del 12 a las 00 UTC al 12 a las 24 UTC
Viento 6 kt del oeste
Visibilidad 10 km o más
Escasas nubes a una altura de 3000 ft

TAF: LEBZ 112300Z 1200/1224 27006KT 9999 FEW030 TX32/1215Z TN16/1206Z

Observaciones y pronósticos meteorológicos de más de 4000 aeropuertos (mensajes METAR y TAF).

Los puntos amarillos y rojos representan las estaciones disponibles.

Ponga el ratón en el punto deseado para ver el nombre de la estación.

Haga clic para ver las observaciones y los pronósticos meteorológicos.

Para cambiar el mapa : haga clic en los botones verdes con una cruz de color negro para hacer un zoom, en el botón verde con un guión para alejar o en las flechas verdes para mapas adyacentes.


METAR-TAF: